sensor_id;sensor_type;location;lat;lon;timestamp;P1;durP1;ratioP1;P2;durP2;ratioP2
49029;SDS011;43337;52.070;4.508;2022-08-01T00:01:36;15.02;;;7.88;;
49029;SDS011;43337;52.070;4.508;2022-08-01T00:04:02;15.77;;;7.82;;
49029;SDS011;43337;52.070;4.508;2022-08-01T00:06:28;18.92;;;8.95;;
49029;SDS011;43337;52.070;4.508;2022-08-01T00:08:54;17.05;;;8.15;;
49029;SDS011;43337;52.070;4.508;2022-08-01T00:11:19;19.83;;;8.98;;
49029;SDS011;43337;52.070;4.508;2022-08-01T00:13:45;17.83;;;8.93;;
49029;SDS011;43337;52.070;4.508;2022-08-01T00:16:10;15.23;;;8.05;;
49029;SDS011;43337;52.070;4.508;2022-08-01T00:18:36;18.83;;;8.57;;
49029;SDS011;43337;52.070;4.508;2022-08-01T00:21:02;18.20;;;8.25;;
49029;SDS011;43337;52.070;4.508;2022-08-01T00:23:28;13.10;;;6.47;;
49029;SDS011;43337;52.070;4.508;2022-08-01T00:25:53;13.55;;;7.20;;
49029;SDS011;43337;52.070;4.508;2022-08-01T00:28:19;13.05;;;6.90;;
49029;SDS011;43337;52.070;4.508;2022-08-01T00:30:44;17.33;;;6.63;;
49029;SDS011;43337;52.070;4.508;2022-08-01T00:33:09;15.02;;;6.43;;
49029;SDS011;43337;52.070;4.508;2022-08-01T00:35:35;13.60;;;6.43;;
49029;SDS011;43337;52.070;4.508;2022-08-01T00:38:00;14.43;;;6.60;;
49029;SDS011;43337;52.070;4.508;2022-08-01T00:40:26;9.70;;;4.22;;
49029;SDS011;43337;52.070;4.508;2022-08-01T00:42:51;9.43;;;4.00;;
49029;SDS011;43337;52.070;4.508;2022-08-01T00:45:16;7.68;;;3.88;;
49029;SDS011;43337;52.070;4.508;2022-08-01T00:47:42;6.30;;;3.22;;
49029;SDS011;43337;52.070;4.508;2022-08-01T00:50:07;7.07;;;2.95;;
49029;SDS011;43337;52.070;4.508;2022-08-01T00:52:33;7.05;;;2.58;;
49029;SDS011;43337;52.070;4.508;2022-08-01T00:54:59;6.15;;;2.28;;
49029;SDS011;43337;52.070;4.508;2022-08-01T00:57:25;5.75;;;2.28;;
49029;SDS011;43337;52.070;4.508;2022-08-01T00:59:50;5.28;;;2.25;;
49029;SDS011;43337;52.070;4.508;2022-08-01T01:02:17;4.80;;;2.15;;
49029;SDS011;43337;52.070;4.508;2022-08-01T01:04:43;5.30;;;2.03;;
49029;SDS011;43337;52.070;4.508;2022-08-01T01:13:06;6.40;;;2.70;;
49029;SDS011;43337;52.070;4.508;2022-08-01T01:18:17;7.03;;;3.58;;
49029;SDS011;43337;52.070;4.508;2022-08-01T01:34:20;8.93;;;4.18;;
49029;SDS011;43337;52.070;4.508;2022-08-01T01:36:49;7.10;;;3.88;;
49029;SDS011;43337;52.070;4.508;2022-08-01T01:39:16;5.95;;;3.20;;
49029;SDS011;43337;52.070;4.508;2022-08-01T01:41:43;5.35;;;2.55;;
49029;SDS011;43337;52.070;4.508;2022-08-01T01:44:10;6.57;;;2.83;;
49029;SDS011;43337;52.070;4.508;2022-08-01T01:46:36;11.07;;;3.22;;
49029;SDS011;43337;52.070;4.508;2022-08-01T01:49:05;5.60;;;3.13;;
49029;SDS011;43337;52.070;4.508;2022-08-01T01:51:35;6.53;;;3.30;;
49029;SDS011;43337;52.070;4.508;2022-08-01T01:54:03;8.48;;;3.33;;
49029;SDS011;43337;52.070;4.508;2022-08-01T01:56:30;6.88;;;3.35;;
49029;SDS011;43337;52.070;4.508;2022-08-01T01:58:57;7.22;;;2.80;;
49029;SDS011;43337;52.070;4.508;2022-08-01T02:01:26;5.63;;;3.38;;
49029;SDS011;43337;52.070;4.508;2022-08-01T02:03:55;5.97;;;2.90;;
49029;SDS011;43337;52.070;4.508;2022-08-01T02:06:23;6.45;;;3.45;;
49029;SDS011;43337;52.070;4.508;2022-08-01T02:08:50;7.18;;;3.33;;
49029;SDS011;43337;52.070;4.508;2022-08-01T02:11:22;6.93;;;3.10;;
49029;SDS011;43337;52.070;4.508;2022-08-01T02:13:54;5.78;;;3.38;;
49029;SDS011;43337;52.070;4.508;2022-08-01T02:16:24;9.90;;;3.50;;
49029;SDS011;43337;52.070;4.508;2022-08-01T02:18:52;5.75;;;3.30;;
49029;SDS011;43337;52.070;4.508;2022-08-01T02:21:20;5.82;;;2.85;;
49029;SDS011;43337;52.070;4.508;2022-08-01T02:23:51;7.03;;;3.47;;
49029;SDS011;43337;52.070;4.508;2022-08-01T02:26:20;7.82;;;3.50;;
49029;SDS011;43337;52.070;4.508;2022-08-01T02:28:49;7.38;;;3.75;;
49029;SDS011;43337;52.070;4.508;2022-08-01T02:31:19;9.13;;;3.60;;
49029;SDS011;43337;52.070;4.508;2022-08-01T02:33:50;10.48;;;4.70;;
49029;SDS011;43337;52.070;4.508;2022-08-01T02:36:21;7.72;;;4.30;;
49029;SDS011;43337;52.070;4.508;2022-08-01T02:38:50;8.52;;;4.28;;
49029;SDS011;43337;52.070;4.508;2022-08-01T02:41:18;8.45;;;4.22;;
49029;SDS011;43337;52.070;4.508;2022-08-01T02:43:47;8.38;;;4.57;;
49029;SDS011;43337;52.070;4.508;2022-08-01T02:46:17;9.02;;;4.75;;
49029;SDS011;43337;52.070;4.508;2022-08-01T02:48:47;8.43;;;4.07;;
49029;SDS011;43337;52.070;4.508;2022-08-01T02:51:16;8.63;;;4.13;;
49029;SDS011;43337;52.070;4.508;2022-08-01T02:53:44;7.18;;;3.80;;
49029;SDS011;43337;52.070;4.508;2022-08-01T02:56:12;6.88;;;3.40;;
49029;SDS011;43337;52.070;4.508;2022-08-01T02:58:38;6.25;;;2.78;;
49029;SDS011;43337;52.070;4.508;2022-08-01T03:01:05;5.30;;;2.85;;
49029;SDS011;43337;52.070;4.508;2022-08-01T03:03:32;6.00;;;3.05;;
49029;SDS011;43337;52.070;4.508;2022-08-01T03:05:59;4.22;;;2.63;;
49029;SDS011;43337;52.070;4.508;2022-08-01T03:08:26;4.32;;;2.50;;
49029;SDS011;43337;52.070;4.508;2022-08-01T03:10:54;6.88;;;3.13;;
49029;SDS011;43337;52.070;4.508;2022-08-01T03:13:21;6.15;;;2.83;;
49029;SDS011;43337;52.070;4.508;2022-08-01T03:15:49;7.07;;;3.15;;
49029;SDS011;43337;52.070;4.508;2022-08-01T03:18:16;5.18;;;2.92;;
49029;SDS011;43337;52.070;4.508;2022-08-01T03:20:43;5.82;;;3.10;;
49029;SDS011;43337;52.070;4.508;2022-08-01T03:23:10;4.80;;;2.70;;
49029;SDS011;43337;52.070;4.508;2022-08-01T03:25:38;7.07;;;3.35;;
49029;SDS011;43337;52.070;4.508;2022-08-01T03:28:06;6.90;;;3.38;;
49029;SDS011;43337;52.070;4.508;2022-08-01T03:30:33;7.50;;;2.80;;
49029;SDS011;43337;52.070;4.508;2022-08-01T03:33:01;5.22;;;3.40;;
49029;SDS011;43337;52.070;4.508;2022-08-01T03:35:28;6.40;;;3.38;;
49029;SDS011;43337;52.070;4.508;2022-08-01T03:37:58;6.85;;;3.60;;
49029;SDS011;43337;52.070;4.508;2022-08-01T03:43:02;7.50;;;3.70;;
49029;SDS011;43337;52.070;4.508;2022-08-01T03:45:34;7.82;;;3.50;;
49029;SDS011;43337;52.070;4.508;2022-08-01T03:48:03;7.18;;;3.20;;
49029;SDS011;43337;52.070;4.508;2022-08-01T03:50:34;6.40;;;3.10;;
49029;SDS011;43337;52.070;4.508;2022-08-01T03:53:02;6.57;;;3.38;;
49029;SDS011;43337;52.070;4.508;2022-08-01T03:55:29;8.38;;;3.33;;
49029;SDS011;43337;52.070;4.508;2022-08-01T03:57:56;6.20;;;3.40;;
49029;SDS011;43337;52.070;4.508;2022-08-01T04:00:23;5.43;;;3.20;;
49029;SDS011;43337;52.070;4.508;2022-08-01T04:02:49;5.50;;;3.35;;
49029;SDS011;43337;52.070;4.508;2022-08-01T04:05:16;6.70;;;3.70;;
49029;SDS011;43337;52.070;4.508;2022-08-01T04:07:45;6.13;;;3.42;;
49029;SDS011;43337;52.070;4.508;2022-08-01T04:10:12;8.88;;;3.80;;
49029;SDS011;43337;52.070;4.508;2022-08-01T04:12:38;12.27;;;4.72;;
49029;SDS011;43337;52.070;4.508;2022-08-01T04:15:04;7.90;;;3.80;;
49029;SDS011;43337;52.070;4.508;2022-08-01T04:17:30;7.10;;;3.70;;
49029;SDS011;43337;52.070;4.508;2022-08-01T04:19:55;7.45;;;4.13;;
49029;SDS011;43337;52.070;4.508;2022-08-01T04:22:22;5.40;;;3.30;;
49029;SDS011;43337;52.070;4.508;2022-08-01T04:24:48;6.47;;;3.75;;
49029;SDS011;43337;52.070;4.508;2022-08-01T04:27:21;5.70;;;3.30;;
49029;SDS011;43337;52.070;4.508;2022-08-01T04:29:49;7.65;;;3.75;;
49029;SDS011;43337;52.070;4.508;2022-08-01T04:32:16;9.20;;;3.47;;
49029;SDS011;43337;52.070;4.508;2022-08-01T04:34:46;8.30;;;3.95;;
49029;SDS011;43337;52.070;4.508;2022-08-01T04:37:12;5.93;;;4.03;;
49029;SDS011;43337;52.070;4.508;2022-08-01T04:39:43;6.75;;;3.97;;
49029;SDS011;43337;52.070;4.508;2022-08-01T04:42:11;8.05;;;4.03;;
49029;SDS011;43337;52.070;4.508;2022-08-01T04:44:38;8.50;;;3.67;;
49029;SDS011;43337;52.070;4.508;2022-08-01T04:47:04;7.65;;;4.60;;
49029;SDS011;43337;52.070;4.508;2022-08-01T04:49:34;10.77;;;6.28;;
49029;SDS011;43337;52.070;4.508;2022-08-01T04:51:59;8.73;;;4.18;;
49029;SDS011;43337;52.070;4.508;2022-08-01T04:54:29;6.53;;;3.45;;
49029;SDS011;43337;52.070;4.508;2022-08-01T04:56:58;7.50;;;4.10;;
49029;SDS011;43337;52.070;4.508;2022-08-01T04:59:31;7.13;;;3.65;;
49029;SDS011;43337;52.070;4.508;2022-08-01T05:02:06;6.15;;;3.60;;
49029;SDS011;43337;52.070;4.508;2022-08-01T05:04:39;8.88;;;3.42;;
49029;SDS011;43337;52.070;4.508;2022-08-01T05:07:05;6.60;;;3.25;;
49029;SDS011;43337;52.070;4.508;2022-08-01T05:09:31;5.75;;;3.25;;
49029;SDS011;43337;52.070;4.508;2022-08-01T05:12:00;8.57;;;4.93;;
49029;SDS011;43337;52.070;4.508;2022-08-01T05:14:28;6.55;;;3.30;;
49029;SDS011;43337;52.070;4.508;2022-08-01T05:16:56;8.48;;;3.75;;
49029;SDS011;43337;52.070;4.508;2022-08-01T05:19:22;5.85;;;3.35;;
49029;SDS011;43337;52.070;4.508;2022-08-01T05:21:47;7.07;;;3.00;;
49029;SDS011;43337;52.070;4.508;2022-08-01T05:24:13;6.20;;;3.40;;
49029;SDS011;43337;52.070;4.508;2022-08-01T05:26:39;7.57;;;3.50;;
49029;SDS011;43337;52.070;4.508;2022-08-01T05:29:04;5.05;;;2.83;;
49029;SDS011;43337;52.070;4.508;2022-08-01T05:31:30;6.68;;;3.47;;
49029;SDS011;43337;52.070;4.508;2022-08-01T05:33:58;5.15;;;3.05;;
49029;SDS011;43337;52.070;4.508;2022-08-01T05:36:25;5.47;;;2.63;;
49029;SDS011;43337;52.070;4.508;2022-08-01T05:38:50;6.78;;;2.65;;
49029;SDS011;43337;52.070;4.508;2022-08-01T05:41:15;4.18;;;2.38;;
49029;SDS011;43337;52.070;4.508;2022-08-01T05:43:44;6.60;;;2.55;;
49029;SDS011;43337;52.070;4.508;2022-08-01T05:46:09;6.63;;;2.30;;
49029;SDS011;43337;52.070;4.508;2022-08-01T05:48:38;5.47;;;2.10;;
49029;SDS011;43337;52.070;4.508;2022-08-01T05:51:03;4.25;;;2.40;;
49029;SDS011;43337;52.070;4.508;2022-08-01T05:53:33;5.30;;;2.35;;
49029;SDS011;43337;52.070;4.508;2022-08-01T05:56:01;4.28;;;2.50;;
49029;SDS011;43337;52.070;4.508;2022-08-01T05:58:26;5.57;;;2.53;;
49029;SDS011;43337;52.070;4.508;2022-08-01T06:00:52;5.15;;;2.63;;
49029;SDS011;43337;52.070;4.508;2022-08-01T06:03:18;5.57;;;2.70;;
49029;SDS011;43337;52.070;4.508;2022-08-01T06:05:43;5.30;;;2.55;;
49029;SDS011;43337;52.070;4.508;2022-08-01T06:08:09;5.18;;;2.85;;
49029;SDS011;43337;52.070;4.508;2022-08-01T06:10:35;4.63;;;3.03;;
49029;SDS011;43337;52.070;4.508;2022-08-01T06:13:00;6.47;;;3.05;;
49029;SDS011;43337;52.070;4.508;2022-08-01T06:15:28;5.97;;;2.97;;
49029;SDS011;43337;52.070;4.508;2022-08-01T06:17:54;7.72;;;3.17;;
49029;SDS011;43337;52.070;4.508;2022-08-01T06:20:20;6.43;;;3.58;;
49029;SDS011;43337;52.070;4.508;2022-08-01T06:22:45;5.90;;;3.28;;
49029;SDS011;43337;52.070;4.508;2022-08-01T06:25:11;5.70;;;3.13;;
49029;SDS011;43337;52.070;4.508;2022-08-01T06:27:36;7.82;;;3.97;;
49029;SDS011;43337;52.070;4.508;2022-08-01T06:30:02;7.93;;;3.88;;
49029;SDS011;43337;52.070;4.508;2022-08-01T06:32:28;7.05;;;3.45;;
49029;SDS011;43337;52.070;4.508;2022-08-01T06:34:54;7.82;;;3.45;;
49029;SDS011;43337;52.070;4.508;2022-08-01T06:37:20;5.97;;;3.50;;
49029;SDS011;43337;52.070;4.508;2022-08-01T06:39:51;7.03;;;3.60;;
49029;SDS011;43337;52.070;4.508;2022-08-01T06:42:17;9.57;;;3.67;;
49029;SDS011;43337;52.070;4.508;2022-08-01T06:44:42;8.32;;;3.47;;
49029;SDS011;43337;52.070;4.508;2022-08-01T06:47:08;9.05;;;3.97;;
49029;SDS011;43337;52.070;4.508;2022-08-01T06:49:33;7.88;;;4.50;;
49029;SDS011;43337;52.070;4.508;2022-08-01T06:51:58;11.75;;;4.85;;
49029;SDS011;43337;52.070;4.508;2022-08-01T06:54:28;14.00;;;4.30;;
49029;SDS011;43337;52.070;4.508;2022-08-01T06:56:54;11.50;;;5.13;;
49029;SDS011;43337;52.070;4.508;2022-08-01T06:59:19;15.63;;;5.50;;
49029;SDS011;43337;52.070;4.508;2022-08-01T07:01:45;15.80;;;5.75;;
49029;SDS011;43337;52.070;4.508;2022-08-01T07:04:10;16.77;;;5.25;;
49029;SDS011;43337;52.070;4.508;2022-08-01T07:06:35;15.07;;;5.30;;
49029;SDS011;43337;52.070;4.508;2022-08-01T07:09:01;18.33;;;4.60;;
49029;SDS011;43337;52.070;4.508;2022-08-01T07:11:27;17.90;;;5.10;;
49029;SDS011;43337;52.070;4.508;2022-08-01T07:13:52;18.98;;;5.25;;
49029;SDS011;43337;52.070;4.508;2022-08-01T07:16:18;18.08;;;5.25;;
49029;SDS011;43337;52.070;4.508;2022-08-01T07:18:43;16.65;;;4.40;;
49029;SDS011;43337;52.070;4.508;2022-08-01T07:21:09;17.95;;;4.28;;
49029;SDS011;43337;52.070;4.508;2022-08-01T07:23:34;16.45;;;4.25;;
49029;SDS011;43337;52.070;4.508;2022-08-01T07:26:00;14.07;;;3.72;;
49029;SDS011;43337;52.070;4.508;2022-08-01T07:28:31;15.98;;;4.78;;
49029;SDS011;43337;52.070;4.508;2022-08-01T07:30:56;15.82;;;4.72;;
49029;SDS011;43337;52.070;4.508;2022-08-01T07:33:22;13.15;;;3.83;;
49029;SDS011;43337;52.070;4.508;2022-08-01T07:35:48;20.70;;;4.93;;
49029;SDS011;43337;52.070;4.508;2022-08-01T07:38:13;17.33;;;4.38;;
49029;SDS011;43337;52.070;4.508;2022-08-01T07:40:41;15.75;;;3.92;;
49029;SDS011;43337;52.070;4.508;2022-08-01T07:43:07;17.42;;;4.93;;
49029;SDS011;43337;52.070;4.508;2022-08-01T07:45:32;14.05;;;4.00;;
49029;SDS011;43337;52.070;4.508;2022-08-01T07:48:02;12.95;;;3.22;;
49029;SDS011;43337;52.070;4.508;2022-08-01T07:50:31;12.80;;;3.53;;
49029;SDS011;43337;52.070;4.508;2022-08-01T07:52:57;14.45;;;3.00;;
49029;SDS011;43337;52.070;4.508;2022-08-01T07:55:22;12.77;;;2.80;;
49029;SDS011;43337;52.070;4.508;2022-08-01T07:57:48;13.93;;;2.83;;
49029;SDS011;43337;52.070;4.508;2022-08-01T08:00:15;13.00;;;2.92;;
49029;SDS011;43337;52.070;4.508;2022-08-01T08:02:40;11.20;;;3.58;;
49029;SDS011;43337;52.070;4.508;2022-08-01T08:05:06;14.27;;;3.08;;
49029;SDS011;43337;52.070;4.508;2022-08-01T08:07:32;10.90;;;3.20;;
49029;SDS011;43337;52.070;4.508;2022-08-01T08:09:58;14.65;;;2.75;;
49029;SDS011;43337;52.070;4.508;2022-08-01T08:12:23;14.57;;;3.22;;
49029;SDS011;43337;52.070;4.508;2022-08-01T08:14:49;11.57;;;2.70;;
49029;SDS011;43337;52.070;4.508;2022-08-01T08:17:14;9.50;;;3.17;;
49029;SDS011;43337;52.070;4.508;2022-08-01T08:19:40;10.40;;;2.72;;
49029;SDS011;43337;52.070;4.508;2022-08-01T08:22:06;12.00;;;3.38;;
49029;SDS011;43337;52.070;4.508;2022-08-01T08:24:32;9.75;;;2.58;;
49029;SDS011;43337;52.070;4.508;2022-08-01T08:26:58;15.52;;;2.60;;
49029;SDS011;43337;52.070;4.508;2022-08-01T08:29:25;9.63;;;2.58;;
49029;SDS011;43337;52.070;4.508;2022-08-01T08:31:52;13.07;;;2.72;;
49029;SDS011;43337;52.070;4.508;2022-08-01T08:34:19;9.82;;;2.92;;
49029;SDS011;43337;52.070;4.508;2022-08-01T08:36:45;8.40;;;2.42;;
49029;SDS011;43337;52.070;4.508;2022-08-01T08:39:11;11.95;;;2.85;;
49029;SDS011;43337;52.070;4.508;2022-08-01T08:41:36;10.32;;;2.97;;
49029;SDS011;43337;52.070;4.508;2022-08-01T08:44:03;12.98;;;3.13;;
49029;SDS011;43337;52.070;4.508;2022-08-01T08:46:29;9.75;;;2.38;;
49029;SDS011;43337;52.070;4.508;2022-08-01T08:48:57;10.05;;;2.92;;
49029;SDS011;43337;52.070;4.508;2022-08-01T08:51:23;15.30;;;2.92;;
49029;SDS011;43337;52.070;4.508;2022-08-01T08:53:53;14.80;;;3.03;;
49029;SDS011;43337;52.070;4.508;2022-08-01T08:56:20;14.07;;;2.78;;
49029;SDS011;43337;52.070;4.508;2022-08-01T08:58:48;13.05;;;2.80;;
49029;SDS011;43337;52.070;4.508;2022-08-01T09:01:15;9.30;;;2.63;;
49029;SDS011;43337;52.070;4.508;2022-08-01T09:03:42;15.60;;;3.03;;
49029;SDS011;43337;52.070;4.508;2022-08-01T09:06:08;9.30;;;2.38;;
49029;SDS011;43337;52.070;4.508;2022-08-01T09:08:35;6.50;;;2.28;;
49029;SDS011;43337;52.070;4.508;2022-08-01T09:11:00;6.97;;;1.80;;
49029;SDS011;43337;52.070;4.508;2022-08-01T09:13:26;6.15;;;1.70;;
49029;SDS011;43337;52.070;4.508;2022-08-01T09:15:52;10.75;;;1.92;;
49029;SDS011;43337;52.070;4.508;2022-08-01T09:21:18;10.57;;;2.20;;
49029;SDS011;43337;52.070;4.508;2022-08-01T09:23:47;8.80;;;2.30;;
49029;SDS011;43337;52.070;4.508;2022-08-01T09:26:15;10.10;;;2.13;;
49029;SDS011;43337;52.070;4.508;2022-08-01T09:28:45;7.82;;;2.20;;
49029;SDS011;43337;52.070;4.508;2022-08-01T09:31:16;9.43;;;2.00;;
49029;SDS011;43337;52.070;4.508;2022-08-01T09:33:52;7.72;;;1.67;;
49029;SDS011;43337;52.070;4.508;2022-08-01T09:36:23;6.18;;;1.60;;
49029;SDS011;43337;52.070;4.508;2022-08-01T09:38:50;7.60;;;1.80;;
49029;SDS011;43337;52.070;4.508;2022-08-01T09:41:17;4.88;;;1.77;;
49029;SDS011;43337;52.070;4.508;2022-08-01T09:43:54;10.88;;;1.63;;
49029;SDS011;43337;52.070;4.508;2022-08-01T09:46:20;7.93;;;1.70;;
49029;SDS011;43337;52.070;4.508;2022-08-01T09:51:33;9.88;;;2.00;;
49029;SDS011;43337;52.070;4.508;2022-08-01T09:53:59;11.50;;;1.95;;
49029;SDS011;43337;52.070;4.508;2022-08-01T09:56:26;8.38;;;2.28;;
49029;SDS011;43337;52.070;4.508;2022-08-01T10:01:26;6.70;;;1.80;;
49029;SDS011;43337;52.070;4.508;2022-08-01T10:04:05;6.72;;;2.55;;
49029;SDS011;43337;52.070;4.508;2022-08-01T10:06:32;9.27;;;1.88;;
49029;SDS011;43337;52.070;4.508;2022-08-01T10:08:57;5.85;;;1.50;;
49029;SDS011;43337;52.070;4.508;2022-08-01T10:11:23;4.80;;;1.70;;
49029;SDS011;43337;52.070;4.508;2022-08-01T10:13:49;6.35;;;1.90;;
49029;SDS011;43337;52.070;4.508;2022-08-01T10:16:14;5.22;;;1.55;;
49029;SDS011;43337;52.070;4.508;2022-08-01T10:18:41;4.20;;;1.15;;
49029;SDS011;43337;52.070;4.508;2022-08-01T10:21:07;4.72;;;1.30;;
49029;SDS011;43337;52.070;4.508;2022-08-01T10:23:34;5.88;;;1.70;;
49029;SDS011;43337;52.070;4.508;2022-08-01T10:26:01;6.88;;;1.60;;
49029;SDS011;43337;52.070;4.508;2022-08-01T10:28:28;8.38;;;1.52;;
49029;SDS011;43337;52.070;4.508;2022-08-01T10:30:55;6.15;;;1.33;;
49029;SDS011;43337;52.070;4.508;2022-08-01T10:33:22;3.50;;;1.20;;
49029;SDS011;43337;52.070;4.508;2022-08-01T10:35:48;6.97;;;1.38;;
49029;SDS011;43337;52.070;4.508;2022-08-01T10:38:15;7.47;;;1.85;;
49029;SDS011;43337;52.070;4.508;2022-08-01T10:40:42;6.80;;;1.52;;
49029;SDS011;43337;52.070;4.508;2022-08-01T10:43:09;7.43;;;1.65;;
49029;SDS011;43337;52.070;4.508;2022-08-01T10:45:39;5.65;;;1.33;;
49029;SDS011;43337;52.070;4.508;2022-08-01T10:48:18;5.07;;;1.40;;
49029;SDS011;43337;52.070;4.508;2022-08-01T10:50:49;8.65;;;1.70;;
49029;SDS011;43337;52.070;4.508;2022-08-01T10:53:18;6.38;;;1.90;;
49029;SDS011;43337;52.070;4.508;2022-08-01T10:58:13;7.72;;;1.90;;
49029;SDS011;43337;52.070;4.508;2022-08-01T11:00:39;8.23;;;1.63;;
49029;SDS011;43337;52.070;4.508;2022-08-01T11:03:04;4.90;;;1.42;;
49029;SDS011;43337;52.070;4.508;2022-08-01T11:05:33;6.20;;;1.40;;
49029;SDS011;43337;52.070;4.508;2022-08-01T11:08:21;4.47;;;1.70;;
49029;SDS011;43337;52.070;4.508;2022-08-01T11:10:47;8.02;;;1.77;;
49029;SDS011;43337;52.070;4.508;2022-08-01T11:13:13;5.18;;;1.65;;
49029;SDS011;43337;52.070;4.508;2022-08-01T11:15:39;8.10;;;1.83;;
49029;SDS011;43337;52.070;4.508;2022-08-01T11:20:55;5.55;;;1.67;;
49029;SDS011;43337;52.070;4.508;2022-08-01T11:23:25;8.02;;;1.98;;
49029;SDS011;43337;52.070;4.508;2022-08-01T11:28:21;4.57;;;1.30;;
49029;SDS011;43337;52.070;4.508;2022-08-01T11:33:16;7.93;;;1.23;;
49029;SDS011;43337;52.070;4.508;2022-08-01T11:38:40;5.63;;;1.40;;
49029;SDS011;43337;52.070;4.508;2022-08-01T11:51:48;7.20;;;1.48;;
49029;SDS011;43337;52.070;4.508;2022-08-01T11:54:24;5.97;;;1.40;;
49029;SDS011;43337;52.070;4.508;2022-08-01T11:56:53;3.00;;;1.02;;
49029;SDS011;43337;52.070;4.508;2022-08-01T11:59:21;4.78;;;1.17;;
49029;SDS011;43337;52.070;4.508;2022-08-01T12:01:47;6.10;;;1.70;;
49029;SDS011;43337;52.070;4.508;2022-08-01T12:04:12;3.50;;;0.93;;
49029;SDS011;43337;52.070;4.508;2022-08-01T12:06:37;2.53;;;0.85;;
49029;SDS011;43337;52.070;4.508;2022-08-01T12:09:20;5.43;;;1.30;;
49029;SDS011;43337;52.070;4.508;2022-08-01T12:11:47;5.10;;;1.38;;
49029;SDS011;43337;52.070;4.508;2022-08-01T12:14:17;5.78;;;1.40;;
49029;SDS011;43337;52.070;4.508;2022-08-01T12:16:48;6.25;;;1.50;;
49029;SDS011;43337;52.070;4.508;2022-08-01T12:19:21;4.35;;;1.10;;
49029;SDS011;43337;52.070;4.508;2022-08-01T12:22:30;3.83;;;1.20;;
49029;SDS011;43337;52.070;4.508;2022-08-01T12:24:40;4.95;;;1.30;;
49029;SDS011;43337;52.070;4.508;2022-08-01T12:27:07;4.65;;;1.05;;
49029;SDS011;43337;52.070;4.508;2022-08-01T12:29:41;6.13;;;1.70;;
49029;SDS011;43337;52.070;4.508;2022-08-01T12:35:07;4.38;;;1.10;;
49029;SDS011;43337;52.070;4.508;2022-08-01T12:37:49;5.05;;;1.15;;
49029;SDS011;43337;52.070;4.508;2022-08-01T12:42:46;5.65;;;1.10;;
49029;SDS011;43337;52.070;4.508;2022-08-01T12:45:30;4.40;;;1.30;;
49029;SDS011;43337;52.070;4.508;2022-08-01T12:48:00;6.47;;;1.50;;
49029;SDS011;43337;52.070;4.508;2022-08-01T12:50:27;5.95;;;1.33;;
49029;SDS011;43337;52.070;4.508;2022-08-01T12:52:54;4.72;;;1.10;;
49029;SDS011;43337;52.070;4.508;2022-08-01T12:55:21;6.43;;;1.65;;
49029;SDS011;43337;52.070;4.508;2022-08-01T12:57:49;11.43;;;2.47;;
49029;SDS011;43337;52.070;4.508;2022-08-01T13:00:28;4.68;;;1.30;;
49029;SDS011;43337;52.070;4.508;2022-08-01T13:03:01;4.45;;;1.40;;
49029;SDS011;43337;52.070;4.508;2022-08-01T13:05:27;6.05;;;1.50;;
49029;SDS011;43337;52.070;4.508;2022-08-01T13:07:53;4.40;;;1.10;;
49029;SDS011;43337;52.070;4.508;2022-08-01T13:10:28;4.45;;;1.17;;
49029;SDS011;43337;52.070;4.508;2022-08-01T13:12:56;4.70;;;1.48;;
49029;SDS011;43337;52.070;4.508;2022-08-01T13:15:27;6.45;;;1.80;;
49029;SDS011;43337;52.070;4.508;2022-08-01T13:18:00;7.72;;;1.90;;
49029;SDS011;43337;52.070;4.508;2022-08-01T13:20:28;5.53;;;1.58;;
49029;SDS011;43337;52.070;4.508;2022-08-01T13:23:09;5.15;;;1.10;;
49029;SDS011;43337;52.070;4.508;2022-08-01T13:25:46;5.20;;;1.35;;
49029;SDS011;43337;52.070;4.508;2022-08-01T13:28:17;5.80;;;1.27;;
49029;SDS011;43337;52.070;4.508;2022-08-01T13:31:00;3.53;;;1.13;;
49029;SDS011;43337;52.070;4.508;2022-08-01T13:33:28;5.03;;;1.33;;
49029;SDS011;43337;52.070;4.508;2022-08-01T13:36:06;6.70;;;1.60;;
49029;SDS011;43337;52.070;4.508;2022-08-01T13:38:31;4.55;;;1.10;;
49029;SDS011;43337;52.070;4.508;2022-08-01T13:41:15;7.40;;;1.65;;
49029;SDS011;43337;52.070;4.508;2022-08-01T13:43:41;5.45;;;1.60;;
49029;SDS011;43337;52.070;4.508;2022-08-01T13:46:06;6.53;;;2.15;;
49029;SDS011;43337;52.070;4.508;2022-08-01T13:48:32;6.15;;;1.70;;
49029;SDS011;43337;52.070;4.508;2022-08-01T13:50:57;6.30;;;1.50;;
49029;SDS011;43337;52.070;4.508;2022-08-01T13:53:23;7.03;;;1.55;;
49029;SDS011;43337;52.070;4.508;2022-08-01T13:55:48;5.28;;;1.25;;
49029;SDS011;43337;52.070;4.508;2022-08-01T13:58:14;4.95;;;1.33;;
49029;SDS011;43337;52.070;4.508;2022-08-01T14:00:40;4.32;;;1.77;;
49029;SDS011;43337;52.070;4.508;2022-08-01T14:03:05;6.68;;;1.58;;
49029;SDS011;43337;52.070;4.508;2022-08-01T14:05:31;6.53;;;1.50;;
49029;SDS011;43337;52.070;4.508;2022-08-01T14:07:56;8.10;;;1.50;;
49029;SDS011;43337;52.070;4.508;2022-08-01T14:10:22;8.95;;;1.83;;
49029;SDS011;43337;52.070;4.508;2022-08-01T14:12:48;5.28;;;1.30;;
49029;SDS011;43337;52.070;4.508;2022-08-01T14:15:14;5.47;;;1.30;;
49029;SDS011;43337;52.070;4.508;2022-08-01T14:17:40;4.22;;;1.60;;
49029;SDS011;43337;52.070;4.508;2022-08-01T14:20:06;5.65;;;1.55;;
49029;SDS011;43337;52.070;4.508;2022-08-01T14:22:31;6.65;;;1.58;;
49029;SDS011;43337;52.070;4.508;2022-08-01T14:24:57;6.80;;;1.27;;
49029;SDS011;43337;52.070;4.508;2022-08-01T14:27:24;4.25;;;1.38;;
49029;SDS011;43337;52.070;4.508;2022-08-01T14:29:49;7.18;;;1.63;;
49029;SDS011;43337;52.070;4.508;2022-08-01T14:32:14;6.97;;;1.75;;
49029;SDS011;43337;52.070;4.508;2022-08-01T14:34:41;6.13;;;1.50;;
49029;SDS011;43337;52.070;4.508;2022-08-01T14:37:06;7.72;;;1.70;;
49029;SDS011;43337;52.070;4.508;2022-08-01T14:39:32;5.32;;;1.63;;
49029;SDS011;43337;52.070;4.508;2022-08-01T14:42:03;7.70;;;1.63;;
49029;SDS011;43337;52.070;4.508;2022-08-01T14:44:29;6.03;;;1.90;;
49029;SDS011;43337;52.070;4.508;2022-08-01T14:46:54;4.97;;;1.90;;
49029;SDS011;43337;52.070;4.508;2022-08-01T14:49:20;5.55;;;1.75;;
49029;SDS011;43337;52.070;4.508;2022-08-01T14:51:45;6.93;;;1.70;;
49029;SDS011;43337;52.070;4.508;2022-08-01T14:54:10;9.93;;;3.80;;
49029;SDS011;43337;52.070;4.508;2022-08-01T14:56:38;5.35;;;1.55;;
49029;SDS011;43337;52.070;4.508;2022-08-01T14:59:04;4.15;;;1.35;;
49029;SDS011;43337;52.070;4.508;2022-08-01T15:01:29;7.57;;;1.80;;
49029;SDS011;43337;52.070;4.508;2022-08-01T15:03:54;3.88;;;1.30;;
49029;SDS011;43337;52.070;4.508;2022-08-01T15:06:20;5.88;;;1.50;;
49029;SDS011;43337;52.070;4.508;2022-08-01T15:08:46;5.97;;;1.80;;
49029;SDS011;43337;52.070;4.508;2022-08-01T15:11:11;4.82;;;1.20;;
49029;SDS011;43337;52.070;4.508;2022-08-01T15:13:37;3.72;;;1.15;;
49029;SDS011;43337;52.070;4.508;2022-08-01T15:16:02;5.32;;;1.20;;
49029;SDS011;43337;52.070;4.508;2022-08-01T15:18:28;3.35;;;1.27;;
49029;SDS011;43337;52.070;4.508;2022-08-01T15:20:53;5.15;;;1.30;;
49029;SDS011;43337;52.070;4.508;2022-08-01T15:23:20;3.92;;;1.30;;
49029;SDS011;43337;52.070;4.508;2022-08-01T15:25:46;6.63;;;1.45;;
49029;SDS011;43337;52.070;4.508;2022-08-01T15:28:11;4.47;;;1.38;;
49029;SDS011;43337;52.070;4.508;2022-08-01T15:30:37;4.25;;;1.00;;
49029;SDS011;43337;52.070;4.508;2022-08-01T15:33:03;5.25;;;1.52;;
49029;SDS011;43337;52.070;4.508;2022-08-01T15:35:29;7.35;;;1.73;;
49029;SDS011;43337;52.070;4.508;2022-08-01T15:37:54;6.03;;;1.80;;
49029;SDS011;43337;52.070;4.508;2022-08-01T15:40:20;4.40;;;1.30;;
49029;SDS011;43337;52.070;4.508;2022-08-01T15:42:46;4.55;;;0.98;;
49029;SDS011;43337;52.070;4.508;2022-08-01T15:45:11;3.97;;;1.20;;
49029;SDS011;43337;52.070;4.508;2022-08-01T15:47:41;6.18;;;1.17;;
49029;SDS011;43337;52.070;4.508;2022-08-01T15:50:08;4.35;;;1.10;;